Time;durP1;ratioP1;P1;durP2;ratioP2;P2;SDS_P1;SDS_P2;PMS_P1;PMS_P2;Temp;Humidity;BMP_temperature;BMP_pressure;BME280_temperature;BME280_humidity;BME280_pressure;Samples;Min_cycle;Max_cycle;Signal;HPM_P1;HPM_P2
2023/04/15 00:01:21;;;;;;;16.48;11.02;;;6.20;99.50;;;;;;5009882;28;20152;-63
2023/04/15 00:03:51;;;;;;;18.17;11.85;;;6.20;99.90;;;;;;5015091;28;20225;-63
2023/04/15 00:06:18;;;;;;;15.40;10.60;;;6.30;99.90;;;;;;5017449;28;20040;-64
2023/04/15 00:08:44;;;;;;;15.90;11.73;;;6.30;99.90;;;;;;5016061;28;20685;-63
2023/04/15 00:11:11;;;;;;;17.58;10.85;;;6.20;99.90;;;;;;5014703;28;20072;-64
2023/04/15 00:13:38;;;;;;;17.67;11.93;;;6.30;99.90;;;;;;5020253;28;20380;-64
2023/04/15 00:16:05;;;;;;;16.88;11.63;;;6.30;99.90;;;;;;5016617;28;20056;-63
2023/04/15 00:18:31;;;;;;;17.58;13.05;;;6.30;99.90;;;;;;5015438;28;20412;-63
2023/04/15 00:20:57;;;;;;;20.65;12.98;;;6.30;99.90;;;;;;5016806;28;20079;-63
2023/04/15 00:23:23;;;;;;;21.35;13.25;;;6.20;99.90;;;;;;5038030;28;20341;-64
2023/04/15 00:25:49;;;;;;;16.95;11.55;;;6.20;99.90;;;;;;5019550;28;20480;-63
2023/04/15 00:28:16;;;;;;;17.27;13.68;;;6.20;99.90;;;;;;5019821;28;20053;-63
2023/04/15 00:30:42;;;;;;;15.82;12.77;;;6.10;99.90;;;;;;5014345;28;20419;-62
2023/04/15 00:33:08;;;;;;;19.25;13.23;;;6.10;99.90;;;;;;5020042;28;20060;-64
2023/04/15 00:35:36;;;;;;;19.95;13.48;;;6.10;99.90;;;;;;5019612;28;20064;-63
2023/04/15 00:38:03;;;;;;;19.63;13.15;;;6.10;99.90;;;;;;5018938;28;20041;-63
2023/04/15 00:40:29;;;;;;;19.08;13.98;;;6.00;99.90;;;;;;5017946;28;20075;-65
2023/04/15 00:42:55;;;;;;;20.25;13.25;;;6.00;99.90;;;;;;5019867;28;20570;-63
2023/04/15 00:45:21;;;;;;;18.98;12.93;;;5.90;99.90;;;;;;5006208;28;20115;-63
2023/04/15 00:47:46;;;;;;;20.77;13.40;;;5.90;99.90;;;;;;5022005;28;20410;-64
2023/04/15 00:50:13;;;;;;;18.63;12.15;;;5.80;99.90;;;;;;5021365;28;20162;-64
2023/04/15 00:52:39;;;;;;;16.85;12.05;;;5.80;99.90;;;;;;5024647;28;20052;-64
2023/04/15 00:55:06;;;;;;;17.10;12.60;;;5.90;99.90;;;;;;5018469;28;20045;-65
2023/04/15 00:57:32;;;;;;;17.80;12.70;;;5.90;99.90;;;;;;5023465;28;20102;-64
2023/04/15 00:59:59;;;;;;;17.13;12.07;;;5.90;99.90;;;;;;5019138;28;20980;-64
2023/04/15 01:02:25;;;;;;;14.80;12.57;;;6.00;99.90;;;;;;5030430;28;20045;-64
2023/04/15 01:04:51;;;;;;;16.83;12.10;;;6.00;99.90;;;;;;5019414;28;20454;-66
2023/04/15 01:07:17;;;;;;;15.07;11.27;;;5.90;99.90;;;;;;5020305;28;20573;-64
2023/04/15 01:09:43;;;;;;;14.70;11.40;;;6.00;99.90;;;;;;5002803;28;20053;-64
2023/04/15 01:12:13;;;;;;;16.13;12.70;;;6.00;99.90;;;;;;5014268;28;20053;-64
2023/04/15 01:14:38;;;;;;;16.92;12.95;;;6.00;99.90;;;;;;5039471;28;20088;-64
2023/04/15 01:17:04;;;;;;;19.88;14.02;;;6.10;99.90;;;;;;5011880;28;20283;-65
2023/04/15 01:19:30;;;;;;;14.82;12.23;;;6.00;99.90;;;;;;5019458;28;20439;-65
2023/04/15 01:21:56;;;;;;;15.88;13.65;;;5.90;99.90;;;;;;5019069;28;20041;-64
2023/04/15 01:24:22;;;;;;;18.08;14.00;;;6.00;99.90;;;;;;4995960;28;20515;-64
2023/04/15 01:26:49;;;;;;;18.88;14.82;;;5.90;99.90;;;;;;5019015;28;20053;-64
2023/04/15 01:29:15;;;;;;;17.88;14.50;;;5.90;99.90;;;;;;5013911;28;20383;-64
2023/04/15 01:31:48;;;;;;;19.10;15.32;;;6.00;99.90;;;;;;5017875;28;20041;-63
2023/04/15 01:34:14;;;;;;;18.23;16.17;;;6.00;99.90;;;;;;5018978;28;20091;-64
2023/04/15 01:36:39;;;;;;;21.02;16.40;;;6.10;99.90;;;;;;5022017;28;20053;-65
2023/04/15 01:39:06;;;;;;;25.65;18.27;;;6.20;99.90;;;;;;5020271;28;20478;-64
2023/04/15 01:41:31;;;;;;;22.50;17.98;;;6.20;99.90;;;;;;5017649;28;20424;-64
2023/04/15 01:43:57;;;;;;;23.88;19.00;;;6.10;99.90;;;;;;5012744;28;20037;-64
2023/04/15 01:46:23;;;;;;;25.33;18.23;;;6.10;99.90;;;;;;5012473;28;20803;-64
2023/04/15 01:48:49;;;;;;;24.55;18.50;;;6.20;99.90;;;;;;5019725;28;20049;-65
2023/04/15 01:51:15;;;;;;;23.85;19.55;;;6.10;99.90;;;;;;5018357;28;20033;-65
2023/04/15 01:53:41;;;;;;;24.90;18.25;;;6.10;99.90;;;;;;5018495;28;20475;-64
2023/04/15 01:56:06;;;;;;;23.77;17.60;;;6.10;99.90;;;;;;5018003;28;20495;-64
2023/04/15 01:58:32;;;;;;;22.75;18.10;;;6.00;99.90;;;;;;5029062;28;20052;-64
2023/04/15 02:00:58;;;;;;;22.63;17.83;;;6.10;99.90;;;;;;5018963;28;20147;-64
2023/04/15 02:03:24;;;;;;;22.63;18.33;;;6.00;99.90;;;;;;5003509;28;20048;-64
2023/04/15 02:05:50;;;;;;;19.08;16.50;;;6.10;99.90;;;;;;5018547;28;20534;-65
2023/04/15 02:08:16;;;;;;;20.02;16.83;;;6.10;99.90;;;;;;5000108;28;20110;-65
2023/04/15 02:10:42;;;;;;;22.00;17.70;;;6.10;99.90;;;;;;5023651;28;20052;-64
2023/04/15 02:13:08;;;;;;;24.83;17.83;;;6.00;99.90;;;;;;5016519;28;20048;-64
2023/04/15 02:15:34;;;;;;;23.15;19.52;;;6.00;99.90;;;;;;5016845;28;20127;-64
2023/04/15 02:17:59;;;;;;;26.00;20.63;;;6.00;99.90;;;;;;5016720;28;20557;-63
2023/04/15 02:20:25;;;;;;;24.05;19.42;;;6.00;99.90;;;;;;5007729;28;20069;-64
2023/04/15 02:22:51;;;;;;;23.20;20.13;;;6.00;99.90;;;;;;5015707;28;20053;-64
2023/04/15 02:25:17;;;;;;;26.90;21.45;;;6.00;99.90;;;;;;5018628;28;20212;-65
2023/04/15 02:27:43;;;;;;;26.80;20.83;;;6.00;99.90;;;;;;5015461;28;20156;-65
2023/04/15 02:30:09;;;;;;;26.63;20.40;;;6.00;99.90;;;;;;5012146;28;20218;-65
2023/04/15 02:32:36;;;;;;;24.58;20.00;;;6.00;99.90;;;;;;5025362;28;20613;-64
2023/04/15 02:35:07;;;;;;;25.75;21.35;;;6.00;99.90;;;;;;5018384;28;20499;-65
2023/04/15 02:37:39;;;;;;;28.73;23.02;;;6.20;99.90;;;;;;5028616;28;20332;-64
2023/04/15 02:40:14;;;;;;;26.42;20.60;;;6.20;99.90;;;;;;5020986;28;20114;-64
2023/04/15 02:42:41;;;;;;;25.17;20.30;;;6.30;99.90;;;;;;5017217;28;20322;-64
2023/04/15 02:45:07;;;;;;;23.75;17.88;;;6.40;99.90;;;;;;5017458;28;20052;-64
2023/04/15 02:47:34;;;;;;;21.65;16.45;;;6.40;99.90;;;;;;5015471;28;20812;-64
2023/04/15 02:50:02;;;;;;;21.65;17.85;;;6.40;99.90;;;;;;5016350;28;20322;-64
2023/04/15 02:52:28;;;;;;;20.38;17.02;;;6.40;99.90;;;;;;5015537;28;20073;-64
2023/04/15 02:54:59;;;;;;;19.17;15.98;;;6.40;99.90;;;;;;5035688;28;20153;-65
2023/04/15 02:57:26;;;;;;;20.88;17.13;;;6.40;99.90;;;;;;5007708;28;20474;-64
2023/04/15 02:59:52;;;;;;;16.88;15.00;;;6.40;99.90;;;;;;5012152;28;20041;-63
2023/04/15 03:02:18;;;;;;;17.55;15.73;;;6.40;99.90;;;;;;5007385;28;20041;-65
2023/04/15 03:04:43;;;;;;;16.88;13.73;;;6.30;99.90;;;;;;5010817;28;20700;-64
2023/04/15 03:07:09;;;;;;;17.23;14.32;;;6.30;99.90;;;;;;5012114;28;20045;-65
2023/04/15 03:09:35;;;;;;;15.52;12.32;;;6.40;99.90;;;;;;5017685;28;20642;-65
2023/04/15 03:12:01;;;;;;;15.02;13.43;;;6.40;99.90;;;;;;5014825;28;20757;-65
2023/04/15 03:14:27;;;;;;;16.30;13.57;;;6.30;99.90;;;;;;5017606;28;20360;-63
2023/04/15 03:16:52;;;;;;;15.77;13.63;;;6.40;99.90;;;;;;5018552;28;20242;-64
2023/04/15 03:19:18;;;;;;;15.43;13.82;;;6.30;99.90;;;;;;5027721;28;20503;-65
2023/04/15 03:21:44;;;;;;;14.23;12.73;;;6.30;99.90;;;;;;5019005;28;20277;-64
2023/04/15 03:24:10;;;;;;;15.30;12.18;;;6.40;99.90;;;;;;5017567;28;20045;-63
2023/04/15 03:26:35;;;;;;;14.45;12.40;;;6.30;99.90;;;;;;5023794;28;20049;-63
2023/04/15 03:29:01;;;;;;;15.82;13.23;;;6.30;99.90;;;;;;5016723;28;20446;-65
2023/04/15 03:31:27;;;;;;;16.75;14.95;;;6.10;99.90;;;;;;4993898;28;20051;-66
2023/04/15 03:33:53;;;;;;;20.27;15.05;;;6.10;99.90;;;;;;5015334;28;20037;-65
2023/04/15 03:36:18;;;;;;;18.98;16.10;;;6.10;99.90;;;;;;5009753;28;20153;-64
2023/04/15 03:38:44;;;;;;;18.73;15.98;;;6.10;99.90;;;;;;5013867;28;20033;-64
2023/04/15 03:41:10;;;;;;;19.80;16.58;;;6.10;99.90;;;;;;5006993;28;20056;-65
2023/04/15 03:43:36;;;;;;;20.63;17.02;;;6.00;99.90;;;;;;5016794;28;20060;-64
2023/04/15 03:46:01;;;;;;;21.30;17.77;;;6.00;99.90;;;;;;5014948;28;20151;-65
2023/04/15 03:48:28;;;;;;;23.88;19.42;;;6.00;99.90;;;;;;5018443;28;20037;-64
2023/04/15 03:50:53;;;;;;;22.80;20.17;;;6.00;99.90;;;;;;5015773;28;20048;-64
2023/04/15 03:53:20;;;;;;;23.38;18.40;;;5.90;99.90;;;;;;5014423;28;20038;-65
2023/04/15 03:55:46;;;;;;;25.48;19.77;;;5.90;99.90;;;;;;5025405;28;20348;-65
2023/04/15 03:58:12;;;;;;;23.55;18.65;;;6.00;99.90;;;;;;5007077;28;20152;-64
2023/04/15 04:00:40;;;;;;;21.83;16.45;;;6.00;99.90;;;;;;5020852;28;20041;-64
2023/04/15 04:03:06;;;;;;;24.67;17.60;;;5.90;99.90;;;;;;5019139;28;20488;-65
2023/04/15 04:05:31;;;;;;;24.45;18.80;;;6.00;99.90;;;;;;5018634;28;20309;-63
2023/04/15 04:07:57;;;;;;;25.52;17.90;;;6.10;99.90;;;;;;5019826;28;20745;-64
2023/04/15 04:10:23;;;;;;;27.15;19.88;;;6.00;99.90;;;;;;5019369;28;20132;-63
2023/04/15 04:12:48;;;;;;;21.05;15.50;;;6.10;99.90;;;;;;5030242;28;20053;-65
2023/04/15 04:15:14;;;;;;;23.27;15.77;;;6.40;99.90;;;;;;5018615;28;20037;-64
2023/04/15 04:17:41;;;;;;;23.05;16.33;;;6.30;99.90;;;;;;5012786;28;20361;-65
2023/04/15 04:20:07;;;;;;;21.95;16.55;;;6.20;99.90;;;;;;5022504;28;20545;-66
2023/04/15 04:22:38;;;;;;;21.88;15.57;;;6.30;1.00;;;;;;5021947;28;20057;-65
2023/04/15 04:25:04;;;;;;;21.42;14.55;;;6.40;99.90;;;;;;5030722;28;20045;-63
2023/04/15 04:27:30;;;;;;;21.00;14.20;;;6.40;99.90;;;;;;4990912;28;20163;-65
2023/04/15 04:29:56;;;;;;;19.58;13.93;;;6.40;1.00;;;;;;5021336;28;20260;-65
2023/04/15 04:32:21;;;;;;;21.88;14.40;;;6.50;1.00;;;;;;5022869;28;20427;-64
2023/04/15 04:34:47;;;;;;;24.27;15.52;;;6.50;1.00;;;;;;5021893;28;20102;-65
2023/04/15 04:37:13;;;;;;;25.17;16.95;;;6.50;1.00;;;;;;5020069;28;20064;-64
2023/04/15 04:39:39;;;;;;;24.52;16.67;;;6.50;1.00;;;;;;5018859;28;20435;-64
2023/04/15 04:42:05;;;;;;;25.67;16.58;;;6.50;1.00;;;;;;5023206;28;20033;-64
2023/04/15 04:44:30;;;;;;;26.20;16.75;;;6.50;1.00;;;;;;5029774;28;20033;-65
2023/04/15 04:46:56;;;;;;;26.45;17.25;;;6.70;1.00;;;;;;5015510;28;20667;-64
2023/04/15 04:49:22;;;;;;;29.20;17.48;;;6.80;20.70;;;;;;5023201;28;20037;-64
2023/04/15 04:51:48;;;;;;;26.92;17.85;;;6.60;51.90;;;;;;5004113;28;20110;-66
2023/04/15 04:54:13;;;;;;;29.25;17.85;;;6.70;65.30;;;;;;5020466;28;20033;-63
2023/04/15 04:56:39;;;;;;;27.80;17.70;;;6.70;88.40;;;;;;5017866;28;20407;-65
2023/04/15 04:59:06;;;;;;;26.17;15.93;;;6.80;99.80;;;;;;5020674;28;20111;-65
2023/04/15 05:01:32;;;;;;;28.15;16.90;;;6.90;99.90;;;;;;5020040;28;20042;-64
2023/04/15 05:03:59;;;;;;;23.73;14.02;;;7.00;99.90;;;;;;5018902;28;20041;-64
2023/04/15 05:06:25;;;;;;;18.55;13.25;;;7.10;99.90;;;;;;5046150;28;20361;-64
2023/04/15 05:08:50;;;;;;;18.55;11.57;;;7.30;92.40;;;;;;5008876;28;20057;-63
2023/04/15 05:11:16;;;;;;;18.42;11.85;;;7.30;65.10;;;;;;5019140;28;20083;-65
2023/04/15 05:13:42;;;;;;;17.70;11.35;;;7.20;29.50;;;;;;5017574;28;20240;-64
2023/04/15 05:16:09;;;;;;;20.42;12.30;;;7.40;1.00;;;;;;5018107;28;20052;-64
2023/04/15 05:18:36;;;;;;;13.80;9.60;;;7.50;1.00;;;;;;5024837;28;20042;-65
2023/04/15 05:21:02;;;;;;;16.23;11.13;;;7.60;1.00;;;;;;5020974;28;20116;-65
2023/04/15 05:23:28;;;;;;;19.00;12.32;;;7.60;1.00;;;;;;5010648;28;20464;-64
2023/04/15 05:25:53;;;;;;;16.70;10.98;;;7.70;1.00;;;;;;5017976;28;20061;-65
2023/04/15 05:28:20;;;;;;;14.15;9.80;;;7.70;1.00;;;;;;5013299;28;20063;-64
2023/04/15 05:30:45;;;;;;;12.45;9.38;;;7.80;99.90;;;;;;5013835;28;20067;-64
2023/04/15 05:33:11;;;;;;;14.88;9.30;;;7.70;99.90;;;;;;5030582;28;20470;-65
2023/04/15 05:35:37;;;;;;;18.02;10.25;;;7.80;99.90;;;;;;5018159;28;20041;-65
2023/04/15 05:38:03;;;;;;;16.40;10.70;;;7.80;99.90;;;;;;5044071;28;20051;-65
2023/04/15 05:40:29;;;;;;;13.10;10.00;;;7.70;99.90;;;;;;5000737;28;20326;-64
2023/04/15 05:42:55;;;;;;;17.08;10.50;;;7.90;99.90;;;;;;5028073;28;20036;-66
2023/04/15 05:45:21;;;;;;;17.95;11.73;;;7.90;99.90;;;;;;5011148;28;20413;-65
2023/04/15 05:47:49;;;;;;;17.05;10.93;;;7.90;99.90;;;;;;5035045;28;20045;-64
2023/04/15 05:50:15;;;;;;;18.50;12.07;;;8.00;99.90;;;;;;5019131;28;20703;-65
2023/04/15 05:52:40;;;;;;;14.27;9.85;;;8.10;99.90;;;;;;5021618;28;20403;-65
2023/04/15 05:55:06;;;;;;;15.85;9.90;;;8.10;99.90;;;;;;5000777;28;20044;-65
2023/04/15 05:57:32;;;;;;;12.57;8.48;;;8.20;99.90;;;;;;5017182;28;20616;-64
2023/04/15 05:59:58;;;;;;;12.65;9.23;;;8.20;99.90;;;;;;5016136;28;20037;-65
2023/04/15 06:02:23;;;;;;;13.43;8.43;;;8.20;99.90;;;;;;5011369;28;20236;-66
2023/04/15 06:04:49;;;;;;;13.32;8.82;;;8.20;99.90;;;;;;5018809;28;20043;-66
2023/04/15 06:07:15;;;;;;;11.10;8.10;;;8.20;99.90;;;;;;5015073;28;20049;-66
2023/04/15 06:09:40;;;;;;;12.30;8.63;;;8.20;99.90;;;;;;5019503;28;20059;-65
2023/04/15 06:12:10;;;;;;;14.15;8.32;;;8.30;99.90;;;;;;5019316;28;20650;-65
2023/04/15 06:14:37;;;;;;;13.70;8.40;;;8.20;99.90;;;;;;5017135;28;20048;-63
2023/04/15 06:17:03;;;;;;;14.25;9.05;;;8.30;99.90;;;;;;5035958;28;20579;-65
2023/04/15 06:19:29;;;;;;;11.88;8.95;;;8.30;99.90;;;;;;5009387;28;20223;-64
2023/04/15 06:21:54;;;;;;;14.70;8.90;;;8.40;99.90;;;;;;5013883;28;20825;-65
2023/04/15 06:24:20;;;;;;;14.27;8.60;;;8.40;99.90;;;;;;5020833;28;20075;-65
2023/04/15 06:26:46;;;;;;;14.75;8.52;;;8.40;99.90;;;;;;5006987;28;20045;-65
2023/04/15 06:29:12;;;;;;;12.93;7.50;;;8.40;99.90;;;;;;5026359;28;20122;-65
2023/04/15 06:31:37;;;;;;;11.68;7.07;;;8.40;99.90;;;;;;5015803;28;20056;-65
2023/04/15 06:34:04;;;;;;;13.18;7.82;;;8.50;99.90;;;;;;5018451;28;20037;-65
2023/04/15 06:36:31;;;;;;;11.82;7.35;;;8.50;99.90;;;;;;5011698;28;20458;-65
2023/04/15 06:38:57;;;;;;;13.95;7.80;;;8.50;99.90;;;;;;5031330;28;20577;-66
2023/04/15 06:41:23;;;;;;;13.00;7.97;;;8.50;99.90;;;;;;5015644;28;20124;-64
2023/04/15 06:43:49;;;;;;;15.45;7.10;;;8.50;99.90;;;;;;5010987;28;20411;-64
2023/04/15 06:46:15;;;;;;;10.65;6.53;;;8.50;99.90;;;;;;5014657;28;20487;-65
2023/04/15 06:48:41;;;;;;;11.13;5.97;;;8.40;30.90;;;;;;4997202;28;20056;-66
2023/04/15 06:51:07;;;;;;;8.57;6.18;;;8.40;99.90;;;;;;5015970;28;20057;-65
2023/04/15 06:53:34;;;;;;;8.63;5.75;;;8.40;95.00;;;;;;5027532;28;20045;-65
2023/04/15 06:56:00;;;;;;;9.50;5.97;;;8.30;4.40;;;;;;4995380;28;20140;-65
2023/04/15 06:58:25;;;;;;;8.43;5.72;;;8.30;73.70;;;;;;5024866;28;20075;-64
2023/04/15 07:00:52;;;;;;;8.30;5.45;;;8.30;99.90;;;;;;5014561;28;20668;-66
2023/04/15 07:03:17;;;;;;;8.48;4.90;;;8.40;88.80;;;;;;4995172;28;20045;-66
2023/04/15 07:05:43;;;;;;;9.27;5.18;;;8.30;51.30;;;;;;5011122;28;20052;-65
2023/04/15 07:08:09;;;;;;;11.63;5.05;;;8.40;61.50;;;;;;4994640;28;20060;-66
2023/04/15 07:10:35;;;;;;;7.57;5.10;;;8.40;14.30;;;;;;5011359;28;20207;-65
2023/04/15 07:13:01;;;;;;;9.77;5.95;;;8.40;77.00;;;;;;5013864;28;20048;-65
2023/04/15 07:15:26;;;;;;;9.35;5.22;;;8.40;37.50;;;;;;5029881;28;20074;-65
2023/04/15 07:17:52;;;;;;;8.23;4.78;;;8.50;29.40;;;;;;5014079;28;20381;-64
2023/04/15 07:20:18;;;;;;;8.30;4.10;;;8.50;21.60;;;;;;5014877;28;20397;-65
2023/04/15 07:22:43;;;;;;;7.70;3.80;;;8.60;1.00;;;;;;5014939;28;20041;-64
2023/04/15 07:25:09;;;;;;;8.52;5.13;;;8.60;1.00;;;;;;5012953;28;20049;-66
2023/04/15 07:27:36;;;;;;;8.10;5.45;;;8.60;1.00;;;;;;5017180;28;20060;-65
2023/04/15 07:30:01;;;;;;;7.05;4.38;;;8.60;1.00;;;;;;5021702;28;20037;-66
2023/04/15 07:32:27;;;;;;;13.10;5.38;;;8.60;1.00;;;;;;5014283;28;20111;-65
2023/04/15 07:34:53;;;;;;;6.80;3.50;;;8.60;1.00;;;;;;4999579;28;20041;-66
2023/04/15 07:37:19;;;;;;;6.38;2.90;;;8.60;1.00;;;;;;5015922;28;20057;-65
2023/04/15 07:39:44;;;;;;;4.25;2.08;;;8.50;1.00;;;;;;5019251;28;20091;-64
2023/04/15 07:42:10;;;;;;;6.97;2.47;;;8.60;1.00;;;;;;5001125;28;20095;-64
2023/04/15 07:44:36;;;;;;;4.68;2.40;;;8.50;1.00;;;;;;5016721;28;20048;-65
2023/04/15 07:47:02;;;;;;;5.63;2.85;;;8.60;1.00;;;;;;5016817;28;20248;-64
2023/04/15 07:49:30;;;;;;;4.50;2.63;;;8.50;1.00;;;;;;5015605;28;20735;-64
2023/04/15 07:51:58;;;;;;;6.80;2.25;;;8.60;1.00;;;;;;5011093;28;20041;-66
2023/04/15 07:54:24;;;;;;;4.80;1.85;;;8.70;1.00;;;;;;4994391;28;20048;-65
2023/04/15 07:56:50;;;;;;;3.72;1.50;;;8.70;1.00;;;;;;5029396;28;20283;-63
2023/04/15 07:59:16;;;;;;;5.75;2.00;;;8.60;1.00;;;;;;5029113;28;20264;-64
2023/04/15 08:01:42;;;;;;;5.50;1.80;;;8.60;1.00;;;;;;5030285;28;20068;-65
2023/04/15 08:04:09;;;;;;;3.78;2.45;;;8.50;1.00;;;;;;5030073;28;20144;-64
2023/04/15 08:06:35;;;;;;;4.82;1.38;;;8.50;1.00;;;;;;5012133;28;20368;-65
2023/04/15 08:09:01;;;;;;;4.47;1.67;;;8.50;1.00;;;;;;4994437;28;20526;-64
2023/04/15 08:11:27;;;;;;;7.07;2.33;;;8.50;1.00;;;;;;4994927;28;20475;-63
2023/04/15 08:13:52;;;;;;;6.00;1.65;;;8.50;1.00;;;;;;5012612;28;20182;-64
2023/04/15 08:16:23;;;;;;;4.00;1.38;;;8.50;1.00;;;;;;4995827;28;20041;-65
2023/04/15 08:18:50;;;;;;;6.90;1.65;;;8.60;1.00;;;;;;5031120;28;20037;-64
2023/04/15 08:21:18;;;;;;;3.58;1.42;;;8.60;1.00;;;;;;5032345;28;20041;-63
2023/04/15 08:23:45;;;;;;;3.58;1.23;;;8.70;1.00;;;;;;5031948;28;20044;-63
2023/04/15 08:26:11;;;;;;;4.25;1.17;;;8.80;99.90;;;;;;5014317;28;20122;-63
2023/04/15 08:28:39;;;;;;;5.95;1.10;;;8.90;1.00;;;;;;5011250;28;20110;-65
2023/04/15 08:31:05;;;;;;;5.03;1.27;;;9.00;1.00;;;;;;5014975;28;20216;-63
2023/04/15 08:33:31;;;;;;;4.70;1.38;;;9.10;99.90;;;;;;5030794;28;20406;-65
2023/04/15 08:35:56;;;;;;;5.43;1.20;;;9.20;1.00;;;;;;5031147;28;20045;-63
2023/04/15 08:38:22;;;;;;;3.72;1.00;;;9.20;99.90;;;;;;5030362;28;20049;-65
2023/04/15 08:40:48;;;;;;;6.10;0.82;;;9.20;99.90;;;;;;5032752;28;20041;-63
2023/04/15 08:43:29;;;;;;;3.28;0.70;;;9.20;99.90;;;;;;5032109;28;20462;-64
2023/04/15 08:45:57;;;;;;;4.70;0.70;;;9.20;99.90;;;;;;5036167;28;20203;-64
2023/04/15 08:48:27;;;;;;;4.00;0.63;;;9.20;99.90;;;;;;5035648;28;20041;-64
2023/04/15 08:50:53;;;;;;;3.88;0.50;;;9.20;99.90;;;;;;5035722;28;20530;-63
2023/04/15 08:53:19;;;;;;;4.40;0.75;;;9.00;99.90;;;;;;5033703;28;20056;-63
2023/04/15 08:55:46;;;;;;;3.20;0.95;;;9.00;99.90;;;;;;5036675;28;20099;-64
2023/04/15 08:58:13;;;;;;;5.85;0.95;;;9.00;99.90;;;;;;5034189;28;20079;-63
2023/04/15 09:00:41;;;;;;;5.57;0.95;;;9.00;99.90;;;;;;5035446;28;20044;-64
2023/04/15 09:03:08;;;;;;;4.95;1.13;;;9.10;99.90;;;;;;5017142;28;20048;-62
2023/04/15 09:05:35;;;;;;;3.85;0.73;;;9.10;99.90;;;;;;5017999;28;20047;-63
2023/04/15 09:08:01;;;;;;;5.68;0.80;;;9.30;99.90;;;;;;4999568;28;20072;-64
2023/04/15 09:10:28;;;;;;;3.88;0.70;;;9.40;99.90;;;;;;5015278;28;20457;-62
2023/04/15 09:12:54;;;;;;;4.40;1.00;;;9.40;99.90;;;;;;5015197;28;20351;-64
2023/04/15 09:15:20;;;;;;;5.88;1.08;;;9.40;99.90;;;;;;5016369;28;20676;-64
2023/04/15 09:17:47;;;;;;;4.32;0.77;;;9.50;99.90;;;;;;5014419;28;20064;-64
2023/04/15 09:20:15;;;;;;;5.07;1.10;;;9.50;99.90;;;;;;5016299;28;20415;-64
2023/04/15 09:22:42;;;;;;;5.35;1.00;;;9.40;99.90;;;;;;5016476;28;20304;-64
2023/04/15 09:25:14;;;;;;;6.68;0.90;;;9.30;99.90;;;;;;5035204;28;20079;-64
2023/04/15 09:27:53;;;;;;;5.35;0.85;;;9.20;99.90;;;;;;5034793;28;20303;-63
2023/04/15 09:30:19;;;;;;;5.55;0.90;;;9.20;99.90;;;;;;5035436;28;20362;-63
2023/04/15 09:32:53;;;;;;;2.72;0.70;;;9.20;99.90;;;;;;5017196;28;20167;-62
2023/04/15 09:35:20;;;;;;;5.55;0.88;;;9.40;99.90;;;;;;5033308;28;20051;-64
2023/04/15 09:37:46;;;;;;;3.88;0.77;;;9.50;99.90;;;;;;5035187;28;20045;-62
2023/04/15 09:40:12;;;;;;;4.65;0.90;;;9.60;99.90;;;;;;5033123;28;20107;-63
2023/04/15 09:42:58;;;;;;;5.47;0.88;;;9.60;99.90;;;;;;5049875;28;20133;-63
2023/04/15 09:45:24;;;;;;;5.88;0.80;;;9.50;99.90;;;;;;5035086;28;20040;-64
2023/04/15 09:47:51;;;;;;;4.55;0.50;;;9.50;99.90;;;;;;5033342;28;20394;-63
2023/04/15 09:50:18;;;;;;;5.85;0.65;;;9.60;99.90;;;;;;5034427;28;20309;-63
2023/04/15 09:52:44;;;;;;;5.47;0.75;;;9.60;99.90;;;;;;5033354;28;20037;-63
2023/04/15 09:55:11;;;;;;;6.45;0.68;;;9.70;99.90;;;;;;5032727;28;20099;-63
2023/04/15 09:57:38;;;;;;;6.07;0.63;;;9.70;99.90;;;;;;5034782;28;20344;-63
2023/04/15 10:00:06;;;;;;;4.18;0.70;;;9.70;99.90;;;;;;5033082;28;20456;-64
2023/04/15 10:02:33;;;;;;;4.95;0.60;;;9.70;99.90;;;;;;5033798;28;20129;-64
2023/04/15 10:04:59;;;;;;;6.03;0.70;;;9.70;99.90;;;;;;5015921;28;20379;-65
2023/04/15 10:07:25;;;;;;;4.63;1.05;;;9.50;99.90;;;;;;5032371;28;20045;-64
2023/04/15 10:09:51;;;;;;;6.10;0.80;;;9.60;99.90;;;;;;5048843;28;20047;-63
2023/04/15 10:12:19;;;;;;;4.40;1.05;;;9.60;99.90;;;;;;5032746;28;20494;-63
2023/04/15 10:14:52;;;;;;;4.22;0.77;;;9.60;99.90;;;;;;5034056;28;20572;-62
2023/04/15 10:17:22;;;;;;;5.53;0.80;;;9.50;99.90;;;;;;5031915;28;20117;-64
2023/04/15 10:19:49;;;;;;;4.32;0.90;;;9.60;99.90;;;;;;5032101;28;20245;-63
2023/04/15 10:22:16;;;;;;;5.93;0.93;;;9.70;99.90;;;;;;5033573;28;20310;-63
2023/04/15 10:24:44;;;;;;;5.88;0.68;;;9.80;99.90;;;;;;5033799;28;20080;-64
2023/04/15 10:27:10;;;;;;;4.57;0.60;;;9.70;99.90;;;;;;5033542;28;20053;-65
2023/04/15 10:29:36;;;;;;;3.83;0.65;;;9.60;99.90;;;;;;5033762;28;20048;-63
2023/04/15 10:32:03;;;;;;;3.35;0.60;;;9.60;99.90;;;;;;5033508;28;20049;-64
2023/04/15 10:34:30;;;;;;;5.10;0.70;;;9.50;99.90;;;;;;5032397;28;20175;-64
2023/04/15 10:37:02;;;;;;;4.25;0.80;;;9.50;99.90;;;;;;5032294;28;20032;-64
2023/04/15 10:39:38;;;;;;;9.10;0.88;;;9.30;99.90;;;;;;5033586;28;20512;-63
2023/04/15 10:42:14;;;;;;;5.72;0.80;;;9.30;1.00;;;;;;5032425;28;20124;-64
2023/04/15 10:44:47;;;;;;;5.20;0.65;;;9.10;99.90;;;;;;5033739;28;20041;-63
2023/04/15 10:47:18;;;;;;;5.28;0.80;;;9.10;1.00;;;;;;5034101;28;20097;-65
2023/04/15 10:49:56;;;;;;;7.20;0.85;;;9.20;1.00;;;;;;5032595;28;20136;-63
2023/04/15 10:52:24;;;;;;;7.20;0.73;;;9.30;1.00;;;;;;5032747;28;20045;-64
2023/04/15 10:55:09;;;;;;;5.25;0.95;;;9.40;1.00;;;;;;5032390;28;20200;-64
2023/04/15 10:57:38;;;;;;;6.35;0.90;;;9.40;1.00;;;;;;5016106;28;20517;-65
2023/04/15 11:00:15;;;;;;;8.98;1.27;;;9.40;1.00;;;;;;5031894;28;20399;-64
2023/04/15 11:02:57;;;;;;;6.15;0.60;;;9.30;1.00;;;;;;5032043;28;20124;-62
2023/04/15 11:05:50;;;;;;;7.18;0.90;;;9.20;1.00;;;;;;5032055;28;20534;-63
2023/04/15 11:08:16;;;;;;;7.97;0.60;;;9.20;7.30;;;;;;5033191;28;20394;-63
2023/04/15 11:10:42;;;;;;;6.25;0.65;;;9.10;1.00;;;;;;5015830;28;20060;-64
2023/04/15 11:13:10;;;;;;;5.97;0.52;;;9.20;1.00;;;;;;5033643;28;20064;-65
2023/04/15 11:15:41;;;;;;;7.22;0.80;;;9.20;1.00;;;;;;5015972;28;20048;-63
2023/04/15 11:18:20;;;;;;;9.38;0.70;;;9.20;1.00;;;;;;5033315;28;20056;-64
2023/04/15 11:20:53;;;;;;;5.68;0.55;;;9.30;1.00;;;;;;5029171;28;20036;-63
2023/04/15 11:23:31;;;;;;;11.60;0.65;;;9.20;1.00;;;;;;5016067;28;20033;-63
2023/04/15 11:25:58;;;;;;;8.15;0.63;;;9.30;1.00;;;;;;5021020;28;20491;-63
2023/04/15 11:28:29;;;;;;;7.82;0.80;;;9.10;1.00;;;;;;5016441;28;20128;-64
2023/04/15 11:30:56;;;;;;;4.75;0.52;;;9.20;29.70;;;;;;5011795;28;20064;-64
2023/04/15 11:33:23;;;;;;;10.88;1.00;;;9.20;14.60;;;;;;5017985;28;20814;-65
2023/04/15 11:35:49;;;;;;;9.05;0.70;;;9.20;99.90;;;;;;5011896;28;20570;-63
2023/04/15 11:38:18;;;;;;;4.85;0.50;;;9.30;93.90;;;;;;5015858;28;20327;-64
2023/04/15 11:40:44;;;;;;;5.78;0.70;;;9.30;90.20;;;;;;5016943;28;20080;-63
2023/04/15 11:43:15;;;;;;;10.45;0.65;;;9.20;27.50;;;;;;5018436;28;21073;-63
2023/04/15 11:45:57;;;;;;;9.43;1.08;;;9.20;27.30;;;;;;5029066;28;20083;-63
2023/04/15 11:48:30;;;;;;;7.82;0.70;;;9.20;99.90;;;;;;5018396;28;20103;-64
2023/04/15 11:50:59;;;;;;;11.53;1.20;;;9.20;99.90;;;;;;5016123;28;20573;-64
2023/04/15 11:53:43;;;;;;;7.38;0.70;;;9.10;99.90;;;;;;5028254;28;20041;-64
2023/04/15 11:56:16;;;;;;;10.80;1.08;;;9.10;99.90;;;;;;5019191;28;20475;-64
2023/04/15 11:58:45;;;;;;;6.80;0.80;;;9.20;99.90;;;;;;5016406;28;20045;-64
2023/04/15 12:01:11;;;;;;;9.68;1.23;;;9.20;99.90;;;;;;5000465;28;20107;-63
2023/04/15 12:03:45;;;;;;;8.85;0.70;;;9.20;99.90;;;;;;5015539;28;20045;-63
2023/04/15 12:06:20;;;;;;;7.47;0.60;;;9.10;99.90;;;;;;5020880;28;20489;-63
2023/04/15 12:09:15;;;;;;;9.30;0.88;;;9.10;99.90;;;;;;5019879;28;20229;-63
2023/04/15 12:11:48;;;;;;;13.75;0.98;;;9.20;99.90;;;;;;5025298;28;20060;-64
2023/04/15 12:14:23;;;;;;;9.07;1.10;;;9.10;99.90;;;;;;5021624;28;20415;-64
2023/04/15 12:16:55;;;;;;;10.73;0.60;;;9.10;99.90;;;;;;5019114;28;20140;-64
2023/04/15 12:19:35;;;;;;;13.32;1.42;;;9.00;99.90;;;;;;5045181;28;20041;-64
2023/04/15 12:22:04;;;;;;;7.75;0.73;;;9.00;99.90;;;;;;5034055;28;20251;-63
2023/04/15 12:24:34;;;;;;;12.48;0.90;;;9.00;99.90;;;;;;5023423;28;20128;-65
2023/04/15 12:27:08;;;;;;;11.07;0.90;;;8.90;99.90;;;;;;5026409;28;20051;-64
2023/04/15 12:29:35;;;;;;;7.63;0.98;;;8.90;99.90;;;;;;5024944;28;20150;-65
2023/04/15 12:32:06;;;;;;;10.15;0.60;;;8.90;99.90;;;;;;5021529;28;20046;-66
2023/04/15 12:34:36;;;;;;;10.98;0.63;;;8.90;99.90;;;;;;5021425;28;20041;-64
2023/04/15 12:37:06;;;;;;;8.07;0.73;;;8.80;99.90;;;;;;5041352;28;20049;-64
2023/04/15 12:39:38;;;;;;;10.85;1.30;;;8.90;99.90;;;;;;5004473;28;20033;-62
2023/04/15 12:42:04;;;;;;;13.60;1.40;;;8.90;99.90;;;;;;5036052;28;20450;-64
2023/04/15 12:44:31;;;;;;;10.35;0.80;;;8.80;99.90;;;;;;5018149;28;20688;-63
2023/04/15 12:46:58;;;;;;;12.05;0.70;;;8.80;99.90;;;;;;5022622;28;20083;-63
2023/04/15 12:49:25;;;;;;;11.60;0.90;;;8.90;99.90;;;;;;5020949;28;20037;-64